Time,TemperatureF,DewpointF,PressureIn,WindDirection,WindDirectionDegrees,WindSpeedMPH,WindSpeedGustMPH,Humidity,HourlyPrecipIn,Conditions,Clouds,dailyrainin,SoftwareType,DateUTC
2013-01-30 00:00:00,48.4,41.9,30.25,North,0,5.0,11.0,78,0.00,,CLR,0.00,VWS V13.01,2013-01-30 08:00:00,
2013-01-30 00:15:00,48.8,41.6,30.25,North,0,5.0,12.0,76,0.00,,CLR,0.00,VWS V13.01,2013-01-30 08:15:00,
2013-01-30 00:30:00,49.5,41.9,30.25,North,0,7.0,16.0,75,0.00,,CLR,0.00,VWS V13.01,2013-01-30 08:30:00,
2013-01-30 00:45:00,50.3,42.0,30.25,North,0,9.0,15.0,73,0.00,,CLR,0.00,VWS V13.01,2013-01-30 08:45:00,
2013-01-30 01:00:00,50.5,41.8,30.25,North,0,9.0,14.0,72,0.00,,CLR,0.00,VWS V13.01,2013-01-30 09:00:00,
2013-01-30 01:15:00,50.4,41.7,30.25,North,0,8.0,15.0,72,0.00,,CLR,0.00,VWS V13.01,2013-01-30 09:15:00,
2013-01-30 01:30:00,50.0,41.7,30.25,North,0,7.0,15.0,73,0.00,,CLR,0.00,VWS V13.01,2013-01-30 09:30:00,
2013-01-30 01:45:00,48.9,41.0,30.26,North,0,1.0,6.0,74,0.00,,CLR,0.00,VWS V13.01,2013-01-30 09:45:00,
2013-01-30 02:00:00,47.0,40.2,30.25,North,0,0.0,2.0,77,0.00,,CLR,0.00,VWS V13.01,2013-01-30 10:00:00,
2013-01-30 02:15:00,45.9,39.8,30.25,North,0,0.0,0.0,79,0.00,,CLR,0.00,VWS V13.01,2013-01-30 10:15:00,
2013-01-30 02:30:00,44.6,38.8,30.25,North,0,0.0,0.0,80,0.00,,CLR,0.00,VWS V13.01,2013-01-30 10:30:00,
2013-01-30 02:45:00,43.6,38.5,30.25,North,0,0.0,0.0,82,0.00,,CLR,0.00,VWS V13.01,2013-01-30 10:45:00,
2013-01-30 03:00:00,42.9,38.4,30.24,North,0,1.0,5.0,84,0.00,,CLR,0.00,VWS V13.01,2013-01-30 11:00:00,
2013-01-30 03:15:00,42.5,38.3,30.24,North,0,0.0,0.0,85,0.00,,CLR,0.00,VWS V13.01,2013-01-30 11:15:00,
2013-01-30 03:30:00,42.5,38.6,30.24,North,0,0.0,0.0,86,0.00,,CLR,0.00,VWS V13.01,2013-01-30 11:30:00,
2013-01-30 03:45:00,42.5,38.6,30.24,North,0,1.0,6.0,86,0.00,,CLR,0.00,VWS V13.01,2013-01-30 11:45:00,
2013-01-30 04:00:00,43.0,39.4,30.23,North,0,3.0,7.0,87,0.00,,CLR,0.00,VWS V13.01,2013-01-30 12:00:00,
2013-01-30 04:15:00,44.5,40.6,30.23,North,0,6.0,10.0,86,0.00,,CLR,0.00,VWS V13.01,2013-01-30 12:15:00,
2013-01-30 04:30:00,46.3,40.8,30.23,North,0,7.0,12.0,81,0.00,,CLR,0.00,VWS V13.01,2013-01-30 12:30:00,
2013-01-30 04:45:00,47.8,40.6,30.23,North,0,8.0,14.0,76,0.00,,CLR,0.00,VWS V13.01,2013-01-30 12:45:00,
2013-01-30 05:00:00,48.8,40.5,30.23,North,0,6.0,13.0,73,0.00,,CLR,0.00,VWS V13.01,2013-01-30 13:00:00,
2013-01-30 05:15:00,48.7,40.5,30.24,North,0,5.0,13.0,73,0.00,,CLR,0.00,VWS V13.01,2013-01-30 13:15:00,
2013-01-30 05:30:00,48.2,40.0,30.24,North,0,1.0,6.0,73,0.00,,CLR,0.00,VWS V13.01,2013-01-30 13:30:00,
2013-01-30 05:45:00,47.5,39.6,30.25,North,0,0.0,0.0,74,0.00,,CLR,0.00,VWS V13.01,2013-01-30 13:45:00,
2013-01-30 06:00:00,46.7,39.2,30.25,North,0,0.0,3.0,75,0.00,,CLR,0.00,VWS V13.01,2013-01-30 14:00:00,
2013-01-30 06:15:00,45.9,39.1,30.25,North,0,0.0,0.0,77,0.00,,CLR,0.00,VWS V13.01,2013-01-30 14:15:00,
2013-01-30 06:30:00,45.0,38.9,30.26,North,0,0.0,3.0,79,0.00,,CLR,0.00,VWS V13.01,2013-01-30 14:30:00,
2013-01-30 06:45:00,44.5,38.7,30.27,North,0,0.0,3.0,80,0.00,,CLR,0.00,VWS V13.01,2013-01-30 14:45:00,
2013-01-30 07:00:00,43.8,38.4,30.27,North,0,0.0,0.0,81,0.00,,CLR,0.00,VWS V13.01,2013-01-30 15:00:00,
2013-01-30 07:15:00,43.2,38.1,30.28,North,0,0.0,0.0,82,0.00,,CLR,0.00,VWS V13.01,2013-01-30 15:15:00,
2013-01-30 07:30:00,42.8,38.0,30.28,North,0,0.0,0.0,83,0.00,,CLR,0.00,VWS V13.01,2013-01-30 15:30:00,
2013-01-30 07:45:00,43.3,39.1,30.29,North,0,0.0,0.0,85,0.00,,CLR,0.00,VWS V13.01,2013-01-30 15:45:00,
2013-01-30 08:00:00,44.4,39.9,30.29,North,0,0.0,0.0,84,0.00,,CLR,0.00,VWS V13.01,2013-01-30 16:00:00,
2013-01-30 08:15:00,46.4,41.5,30.30,North,0,0.0,0.0,83,0.00,,CLR,0.00,VWS V13.01,2013-01-30 16:15:00,
2013-01-30 08:30:00,47.8,42.3,30.30,North,0,0.0,0.0,81,0.00,,CLR,0.00,VWS V13.01,2013-01-30 16:30:00,
2013-01-30 08:45:00,47.6,42.1,30.31,North,0,0.0,0.0,81,0.00,,CLR,0.00,VWS V13.01,2013-01-30 16:45:00,
2013-01-30 09:00:00,47.6,42.4,30.31,North,0,0.0,0.0,82,0.00,,CLR,0.00,VWS V13.01,2013-01-30 17:00:00,
2013-01-30 09:15:00,47.7,42.5,30.30,North,0,0.0,0.0,82,0.00,,CLR,0.00,VWS V13.01,2013-01-30 17:15:00,
2013-01-30 09:30:00,49.2,43.6,30.31,ESE,112,0.0,5.0,81,0.00,,CLR,0.00,VWS V13.01,2013-01-30 17:30:00,
2013-01-30 09:45:00,50.3,44.0,30.31,ESE,112,0.0,5.0,79,0.00,,CLR,0.00,VWS V13.01,2013-01-30 17:45:00,
2013-01-30 10:00:00,51.6,45.0,30.31,ESE,112,2.0,5.0,78,0.00,,CLR,0.00,VWS V13.01,2013-01-30 18:00:00,
2013-01-30 10:15:00,53.2,45.8,30.31,ESE,112,0.0,2.0,76,0.00,,CLR,0.00,VWS V13.01,2013-01-30 18:15:00,
2013-01-30 10:30:00,55.0,46.2,30.31,ESE,112,0.0,0.0,72,0.00,,CLR,0.00,VWS V13.01,2013-01-30 18:30:00,
2013-01-30 10:45:00,56.7,47.4,30.30,ESE,112,0.0,5.0,71,0.00,,CLR,0.00,VWS V13.01,2013-01-30 18:45:00,
2013-01-30 11:00:00,56.7,47.8,30.30,SE,135,4.0,8.0,72,0.00,,CLR,0.00,VWS V13.01,2013-01-30 19:00:00,
2013-01-30 11:15:00,56.6,46.2,30.30,ESE,112,3.0,7.0,68,0.00,,CLR,0.00,VWS V13.01,2013-01-30 19:15:00,
2013-01-30 11:30:00,56.9,47.2,30.30,SE,135,4.0,8.0,70,0.00,,CLR,0.00,VWS V13.01,2013-01-30 19:30:00,
2013-01-30 11:45:00,57.3,46.5,30.28,SE,135,4.0,9.0,67,0.00,,CLR,0.00,VWS V13.01,2013-01-30 19:45:00,
2013-01-30 12:00:00,58.0,47.1,30.28,SE,135,3.0,7.0,67,0.00,,CLR,0.00,VWS V13.01,2013-01-30 20:00:00,
2013-01-30 12:15:00,58.6,46.5,30.27,SE,135,2.0,7.0,64,0.00,,CLR,0.00,VWS V13.01,2013-01-30 20:15:00,
2013-01-30 12:30:00,59.6,47.4,30.27,SE,135,1.0,6.0,64,0.00,,CLR,0.00,VWS V13.01,2013-01-30 20:30:00,
2013-01-30 12:45:00,60.3,47.2,30.26,SE,135,2.0,8.0,62,0.00,,CLR,0.00,VWS V13.01,2013-01-30 20:45:00,
2013-01-30 13:00:00,61.4,47.8,30.25,SE,135,0.0,5.0,61,0.00,,CLR,0.00,VWS V13.01,2013-01-30 21:00:00,
2013-01-30 13:15:00,63.6,44.1,30.25,NNW,338,3.0,11.0,49,0.00,,CLR,0.00,VWS V13.01,2013-01-30 21:15:00,
2013-01-30 13:30:00,65.6,44.3,30.24,North,0,2.0,10.0,46,0.00,,CLR,0.00,VWS V13.01,2013-01-30 21:30:00,
2013-01-30 13:45:00,66.9,44.3,30.24,NNW,338,4.0,10.0,44,0.00,,CLR,0.00,VWS V13.01,2013-01-30 21:45:00,
2013-01-30 14:00:00,67.3,44.7,30.23,NW,315,5.0,11.0,44,0.00,,CLR,0.00,VWS V13.01,2013-01-30 22:00:00,
2013-01-30 14:15:00,67.6,44.9,30.23,North,0,1.0,10.0,44,0.00,,CLR,0.00,VWS V13.01,2013-01-30 22:15:00,
2013-01-30 14:30:00,67.2,44.0,30.23,North,0,2.0,7.0,43,0.00,,CLR,0.00,VWS V13.01,2013-01-30 22:30:00,
2013-01-30 14:45:00,67.3,42.8,30.23,North,0,1.0,6.0,41,0.00,,CLR,0.00,VWS V13.01,2013-01-30 22:45:00,
2013-01-30 15:00:00,67.3,43.5,30.23,NNE,22,3.0,8.0,42,0.00,,CLR,0.00,VWS V13.01,2013-01-30 23:00:00,
2013-01-30 15:15:00,66.8,44.8,30.23,NNW,338,0.0,5.0,45,0.00,,CLR,0.00,VWS V13.01,2013-01-30 23:15:00,
2013-01-30 15:30:00,63.5,46.1,30.22,SE,135,4.0,9.0,53,0.00,,CLR,0.00,VWS V13.01,2013-01-30 23:30:00,
2013-01-30 15:45:00,61.2,44.9,30.22,SE,135,6.0,11.0,55,0.00,,CLR,0.00,VWS V13.01,2013-01-30 23:45:00,
2013-01-30 16:00:00,60.2,44.9,30.22,SE,135,5.0,9.0,57,0.00,,CLR,0.00,VWS V13.01,2013-01-31 00:00:00,
2013-01-30 16:15:00,59.8,44.5,30.22,SE,135,3.0,8.0,57,0.00,,CLR,0.00,VWS V13.01,2013-01-31 00:15:00,
2013-01-30 16:30:00,59.1,45.7,30.22,SE,135,3.0,7.0,61,0.00,,CLR,0.00,VWS V13.01,2013-01-31 00:30:00,
2013-01-30 16:45:00,58.4,45.0,30.22,SE,135,1.0,5.0,61,0.00,,CLR,0.00,VWS V13.01,2013-01-31 00:45:00,
2013-01-30 17:00:00,57.7,45.2,30.22,SE,135,0.0,0.0,63,0.00,,CLR,0.00,VWS V13.01,2013-01-31 01:00:00,
2013-01-30 17:15:00,57.0,43.7,30.23,SE,135,0.0,0.0,61,0.00,,CLR,0.00,VWS V13.01,2013-01-31 01:15:00,
2013-01-30 17:30:00,56.4,42.7,30.23,SE,135,0.0,0.0,60,0.00,,CLR,0.00,VWS V13.01,2013-01-31 01:30:00,
2013-01-30 17:45:00,55.7,43.3,30.22,SE,135,0.0,0.0,63,0.00,,CLR,0.00,VWS V13.01,2013-01-31 01:45:00,
2013-01-30 18:00:00,55.2,43.2,30.23,SE,135,0.0,0.0,64,0.00,,CLR,0.00,VWS V13.01,2013-01-31 02:00:00,
2013-01-30 18:15:00,54.3,43.2,30.23,SE,135,0.0,4.0,66,0.00,,CLR,0.00,VWS V13.01,2013-01-31 02:15:00,
2013-01-30 18:30:00,52.4,42.5,30.23,SE,135,0.0,0.0,69,0.00,,CLR,0.00,VWS V13.01,2013-01-31 02:30:00,
2013-01-30 18:45:00,51.3,42.6,30.23,SE,135,0.0,0.0,72,0.00,,CLR,0.00,VWS V13.01,2013-01-31 02:45:00,
2013-01-30 19:00:00,50.5,42.5,30.23,SE,135,0.0,0.0,74,0.00,,CLR,0.00,VWS V13.01,2013-01-31 03:00:00,
2013-01-30 19:15:00,50.2,42.6,30.23,SE,135,0.0,0.0,75,0.00,,CLR,0.00,VWS V13.01,2013-01-31 03:15:00,
2013-01-30 19:30:00,49.6,42.4,30.23,SE,135,0.0,0.0,76,0.00,,CLR,0.00,VWS V13.01,2013-01-31 03:30:00,
2013-01-30 19:45:00,49.1,41.9,30.22,SE,135,0.0,0.0,76,0.00,,CLR,0.00,VWS V13.01,2013-01-31 03:45:00,
2013-01-30 20:00:00,48.5,41.3,30.22,SE,135,0.0,0.0,76,0.00,,CLR,0.00,VWS V13.01,2013-01-31 04:00:00,
2013-01-30 20:15:00,47.9,41.0,30.23,SE,135,0.0,0.0,77,0.00,,CLR,0.00,VWS V13.01,2013-01-31 04:15:00,
2013-01-30 20:30:00,47.2,40.7,30.22,SE,135,0.0,0.0,78,0.00,,CLR,0.00,VWS V13.01,2013-01-31 04:30:00,
2013-01-30 20:45:00,46.3,40.2,30.23,SE,135,0.0,0.0,79,0.00,,CLR,0.00,VWS V13.01,2013-01-31 04:45:00,
2013-01-30 21:00:00,45.7,40.2,30.24,SE,135,0.0,0.0,81,0.00,,CLR,0.00,VWS V13.01,2013-01-31 05:00:00,
2013-01-30 21:15:00,45.5,40.3,30.24,SE,135,0.0,0.0,82,0.00,,CLR,0.00,VWS V13.01,2013-01-31 05:15:00,
2013-01-30 21:30:00,45.5,40.3,30.24,SE,126,0.0,0.0,82,0.00,,CLR,0.00,VWS V13.01,2013-01-31 05:30:00,
2013-01-30 21:45:00,45.1,39.9,30.24,North,0,0.0,0.0,82,0.00,,CLR,0.00,VWS V13.01,2013-01-31 05:45:00,
2013-01-30 22:00:00,44.5,39.7,30.24,North,0,0.0,0.0,83,0.00,,CLR,0.00,VWS V13.01,2013-01-31 06:00:00,
2013-01-30 22:15:00,44.2,39.7,30.24,North,0,0.0,0.0,84,0.00,,CLR,0.00,VWS V13.01,2013-01-31 06:15:00,
2013-01-30 22:30:00,43.8,39.3,30.24,North,0,0.0,0.0,84,0.00,,CLR,0.00,VWS V13.01,2013-01-31 06:30:00,
2013-01-30 22:45:00,43.8,39.9,30.24,North,0,0.0,0.0,86,0.00,,CLR,0.00,VWS V13.01,2013-01-31 06:45:00,
2013-01-30 23:00:00,43.6,39.4,30.25,North,0,0.0,0.0,85,0.00,,CLR,0.00,VWS V13.01,2013-01-31 07:00:00,
2013-01-30 23:15:00,43.1,38.9,30.24,North,0,0.0,0.0,85,0.00,,CLR,0.00,VWS V13.01,2013-01-31 07:15:00,
2013-01-30 23:30:00,42.3,38.1,30.24,North,0,0.0,0.0,85,0.00,,CLR,0.00,VWS V13.01,2013-01-31 07:30:00,
2013-01-30 23:45:00,41.7,37.8,30.25,North,0,0.0,0.0,86,0.00,,CLR,0.00,VWS V13.01,2013-01-31 07:45:00,